DAOF

Tindouf Airport

Tindouf, Algeria
METAR DAOF 162200Z 26004KT CAVOK 10/M02 Q1017
Observed Flight Rules
Jan-16 @ 22:00 UTC (an hour ago) Visual Flight Rules
Wind Visibility Clouds
260° at 4 knots 10,000+ meters
  • Clear skies
Temperatures Readings
Current 10°C / 50°F
Dewpoint -2°C / 28°F
Humidity 43%
Altimeter 30.03" Hg
Pressure 1016.92 hPa
Elevation 431
METAR DAOF 162200Z 26004KT CAVOK 10/M02 Q1017
Observed Flight Rules
Jan-16 @ 22:00 UTC
(an hour ago)
VFR
Wind Visibility
260° at 4 knots 10,000+ meters
Clouds
  • Clear skies
Temperature Dewpoint
10°C / 50°F -2°C / 28°F
Humidity Altimeter Pressure
43% 30.03" Hg 1016.92 hPa